createdAt,value
2022-08-18T00:01:16.632Z,21.90
2022-08-18T00:03:56.795Z,21.90
2022-08-18T00:06:29.522Z,21.90
2022-08-18T00:09:04.078Z,21.80
2022-08-18T00:11:41.290Z,21.80
2022-08-18T00:14:21.191Z,21.80
2022-08-18T00:16:52.697Z,21.70
2022-08-18T00:19:20.684Z,21.70
2022-08-18T00:22:08.732Z,21.70
2022-08-18T00:24:47.651Z,21.70
2022-08-18T00:27:28.479Z,21.70
2022-08-18T00:30:00.813Z,21.60
2022-08-18T00:32:33.887Z,21.60
2022-08-18T00:35:13.754Z,21.60
2022-08-18T00:37:42.226Z,21.60
2022-08-18T00:40:14.239Z,21.60
2022-08-18T00:42:48.304Z,21.50
2022-08-18T00:45:22.002Z,21.50
2022-08-18T00:47:49.203Z,21.50
2022-08-18T00:50:28.695Z,21.50
2022-08-18T00:53:34.886Z,21.40
2022-08-18T00:56:11.380Z,21.40
2022-08-18T00:58:49.191Z,21.40
2022-08-18T01:01:19.371Z,21.30
2022-08-18T01:03:53.103Z,21.30
2022-08-18T01:06:52.465Z,21.20
2022-08-18T01:09:19.599Z,21.20
2022-08-18T01:11:51.510Z,21.20
2022-08-18T01:14:19.744Z,21.20
2022-08-18T01:17:08.636Z,21.10
2022-08-18T01:19:55.692Z,21.10
2022-08-18T01:22:41.247Z,21.10
2022-08-18T01:25:28.073Z,21.10
2022-08-18T01:27:59.776Z,21.00
2022-08-18T01:30:29.901Z,21.00
2022-08-18T01:32:58.690Z,21.00
2022-08-18T01:35:27.753Z,20.90
2022-08-18T01:37:55.552Z,20.90
2022-08-18T01:41:17.511Z,20.90
2022-08-18T01:43:13.425Z,20.90
2022-08-18T01:45:42.195Z,20.80
2022-08-18T01:48:09.671Z,20.80
2022-08-18T01:50:39.935Z,20.80
2022-08-18T01:53:09.383Z,20.70
2022-08-18T01:55:39.140Z,20.70
2022-08-18T01:58:08.111Z,20.70
2022-08-18T02:00:36.678Z,20.70
2022-08-18T02:03:10.146Z,20.70
2022-08-18T02:05:49.200Z,20.70
2022-08-18T02:08:17.008Z,20.60
2022-08-18T02:10:44.264Z,20.60
2022-08-18T02:13:11.402Z,20.60
2022-08-18T02:15:38.601Z,20.60
2022-08-18T02:18:32.513Z,20.50
2022-08-18T02:21:15.911Z,20.50
2022-08-18T02:23:53.635Z,20.50
2022-08-18T02:26:22.304Z,20.50
2022-08-18T02:28:50.163Z,20.50
2022-08-18T02:31:22.888Z,20.40
2022-08-18T02:33:52.336Z,20.40
2022-08-18T02:36:21.531Z,20.40
2022-08-18T02:38:59.223Z,20.40
2022-08-18T02:41:31.241Z,20.30
2022-08-18T02:43:59.031Z,20.30
2022-08-18T02:46:30.148Z,20.20
2022-08-18T02:48:57.971Z,20.10
2022-08-18T02:51:25.769Z,20.10
2022-08-18T02:53:54.277Z,20.00
2022-08-18T02:56:40.527Z,20.10
2022-08-18T02:59:16.955Z,20.10
2022-08-18T03:01:49.143Z,20.00
2022-08-18T03:04:29.218Z,20.00
2022-08-18T03:07:01.654Z,20.00
2022-08-18T03:09:30.538Z,20.00
2022-08-18T03:11:58.385Z,20.00
2022-08-18T03:14:26.039Z,19.90
2022-08-18T03:16:55.279Z,19.90
2022-08-18T03:19:28.847Z,19.90
2022-08-18T03:22:02.758Z,19.80
2022-08-18T03:24:32.717Z,19.90
2022-08-18T03:27:04.204Z,19.90
2022-08-18T03:29:32.911Z,19.80
2022-08-18T03:32:03.920Z,19.80
2022-08-18T03:34:32.356Z,19.80
2022-08-18T03:36:59.724Z,19.80
2022-08-18T03:39:28.472Z,19.80
2022-08-18T03:42:00.943Z,19.80
2022-08-18T03:44:37.030Z,19.80
2022-08-18T03:47:09.661Z,19.80
2022-08-18T03:49:37.956Z,19.80
2022-08-18T03:52:09.431Z,19.80
2022-08-18T03:54:38.966Z,19.70
2022-08-18T03:59:54.874Z,19.70
2022-08-18T04:02:21.929Z,19.70
2022-08-18T04:04:49.671Z,19.70
2022-08-18T04:07:18.972Z,19.70
2022-08-18T04:09:46.183Z,19.70
2022-08-18T04:12:17.292Z,19.70
2022-08-18T04:14:49.551Z,19.70
2022-08-18T04:17:24.875Z,19.70
2022-08-18T04:19:54.845Z,19.70
2022-08-18T04:22:23.349Z,19.70
2022-08-18T04:24:50.862Z,19.70
2022-08-18T04:27:22.565Z,19.70
2022-08-18T04:29:50.852Z,19.70
2022-08-18T04:32:19.455Z,19.80
2022-08-18T04:34:46.618Z,19.80
2022-08-18T04:37:15.517Z,19.80
2022-08-18T04:39:49.009Z,19.80
2022-08-18T04:42:16.452Z,19.80
2022-08-18T04:44:43.828Z,19.90
2022-08-18T04:47:12.676Z,19.90
2022-08-18T04:49:40.014Z,19.90
2022-08-18T04:52:40.175Z,19.90
2022-08-18T04:55:09.609Z,20.00
2022-08-18T04:57:36.781Z,20.00
2022-08-18T05:00:07.021Z,20.00
2022-08-18T05:02:35.060Z,20.10
2022-08-18T05:05:03.889Z,20.10
2022-08-18T05:07:31.701Z,20.20
2022-08-18T05:09:58.974Z,20.20
2022-08-18T05:12:26.788Z,20.30
2022-08-18T05:14:57.674Z,20.30
2022-08-18T05:17:29.933Z,20.40
2022-08-18T05:20:02.080Z,20.40
2022-08-18T05:22:31.303Z,20.50
2022-08-18T05:27:46.694Z,20.60
2022-08-18T05:30:17.017Z,20.60
2022-08-18T05:32:50.020Z,20.70
2022-08-18T05:35:30.787Z,20.80
2022-08-18T05:38:37.854Z,20.90
2022-08-18T05:41:34.656Z,20.90
2022-08-18T05:44:02.715Z,21.10
2022-08-18T05:46:43.224Z,21.20
2022-08-18T05:49:13.212Z,21.30
2022-08-18T05:51:52.220Z,21.40
2022-08-18T05:54:40.187Z,21.50
2022-08-18T05:57:21.833Z,21.60
2022-08-18T05:59:52.351Z,21.70
2022-08-18T06:02:52.994Z,21.80
2022-08-18T06:06:02.457Z,21.90
2022-08-18T06:08:40.645Z,22.00
2022-08-18T06:11:08.102Z,22.10
2022-08-18T06:13:59.538Z,22.20
2022-08-18T06:16:39.051Z,22.30
2022-08-18T06:20:03.978Z,22.40
2022-08-18T06:22:59.718Z,22.50
2022-08-18T06:25:55.393Z,22.60
2022-08-18T06:28:59.092Z,22.70
2022-08-18T06:32:01.321Z,22.90
2022-08-18T06:34:42.602Z,23.00
2022-08-18T06:37:58.100Z,23.10
2022-08-18T06:40:34.884Z,23.20
2022-08-18T06:43:02.407Z,23.40
2022-08-18T06:45:39.968Z,23.50
2022-08-18T06:48:32.965Z,23.60
2022-08-18T06:51:03.026Z,23.70
2022-08-18T06:54:04.906Z,23.80
2022-08-18T06:56:40.538Z,24.00
2022-08-18T06:59:24.484Z,24.10
2022-08-18T07:02:39.546Z,24.30
2022-08-18T07:05:29.731Z,24.30
2022-08-18T07:08:20.432Z,24.40
2022-08-18T07:10:51.537Z,24.50
2022-08-18T07:13:30.093Z,24.60
2022-08-18T07:16:40.552Z,24.60
2022-08-18T07:19:16.659Z,24.70
2022-08-18T07:22:09.286Z,24.80
2022-08-18T07:24:45.032Z,24.90
2022-08-18T07:27:42.935Z,25.00
2022-08-18T07:30:15.447Z,25.10
2022-08-18T07:32:54.271Z,25.20
2022-08-18T07:35:49.535Z,25.30
2022-08-18T07:38:43.117Z,25.40
2022-08-18T07:41:24.210Z,25.60
2022-08-18T07:44:23.786Z,25.80
2022-08-18T07:47:13.081Z,25.80
2022-08-18T07:50:13.404Z,26.00
2022-08-18T07:52:59.604Z,26.10
2022-08-18T07:55:33.413Z,26.20
2022-08-18T07:58:49.046Z,26.20
2022-08-18T08:01:50.132Z,26.30
2022-08-18T08:04:53.393Z,26.40
2022-08-18T08:07:47.540Z,26.40
2022-08-18T08:10:51.676Z,26.50
2022-08-18T08:14:00.705Z,26.60
2022-08-18T08:16:51.250Z,26.70
2022-08-18T08:19:59.944Z,26.80
2022-08-18T08:22:32.210Z,26.80
2022-08-18T08:25:42.705Z,26.90
2022-08-18T08:28:56.303Z,27.00
2022-08-18T08:32:02.482Z,27.10
2022-08-18T08:34:49.210Z,27.20
2022-08-18T08:38:22.951Z,27.30
2022-08-18T08:41:03.440Z,27.40
2022-08-18T08:43:45.401Z,27.60
2022-08-18T08:46:30.075Z,27.60
2022-08-18T08:49:06.161Z,27.70
2022-08-18T08:51:39.274Z,27.90
2022-08-18T08:54:23.428Z,28.00
2022-08-18T08:56:55.361Z,28.10
2022-08-18T09:03:16.819Z,28.30
2022-08-18T09:05:57.283Z,28.50
2022-08-18T09:08:42.907Z,28.60
2022-08-18T09:11:31.211Z,28.70
2022-08-18T09:14:14.932Z,28.80
2022-08-18T09:17:11.913Z,29.00
2022-08-18T09:19:45.126Z,29.00
2022-08-18T09:22:54.894Z,29.00
2022-08-18T09:25:40.011Z,29.20
2022-08-18T09:28:36.531Z,29.30
2022-08-18T09:31:09.019Z,29.40
2022-08-18T09:33:45.756Z,29.50
2022-08-18T09:37:03.611Z,29.60
2022-08-18T09:40:10.975Z,29.80
2022-08-18T09:42:57.605Z,29.80
2022-08-18T09:45:33.623Z,29.90
2022-08-18T09:48:12.994Z,29.90
2022-08-18T09:51:17.562Z,30.10
2022-08-18T09:53:52.518Z,30.20
2022-08-18T09:57:05.274Z,30.30
2022-08-18T09:59:38.103Z,30.50
2022-08-18T10:02:18.782Z,30.70
2022-08-18T10:04:53.992Z,30.70
2022-08-18T10:07:43.497Z,30.80
2022-08-18T10:11:00.548Z,30.90
2022-08-18T10:14:07.211Z,30.90
2022-08-18T10:20:48.397Z,31.00
2022-08-18T10:26:55.608Z,31.20
2022-08-18T10:29:34.328Z,31.30
2022-08-18T10:32:01.332Z,31.40
2022-08-18T10:34:55.486Z,31.50
2022-08-18T10:37:46.390Z,31.50
2022-08-18T10:40:26.660Z,31.60
2022-08-18T10:46:46.597Z,31.60
2022-08-18T10:49:25.791Z,31.70
2022-08-18T10:52:27.967Z,31.80
2022-08-18T10:55:47.734Z,31.90
2022-08-18T10:58:21.288Z,31.90
2022-08-18T11:01:06.177Z,32.00
2022-08-18T11:06:26.256Z,32.10
2022-08-18T11:09:01.573Z,32.20
2022-08-18T11:11:52.751Z,32.30
2022-08-18T11:15:00.451Z,32.30
2022-08-18T11:18:03.118Z,32.50
2022-08-18T11:20:34.935Z,32.50
2022-08-18T11:23:03.779Z,32.70
2022-08-18T11:25:35.796Z,32.70
2022-08-18T11:28:20.327Z,32.80
2022-08-18T11:30:55.648Z,32.90
2022-08-18T11:33:24.464Z,32.90
2022-08-18T11:36:01.339Z,33.00
2022-08-18T11:38:31.774Z,33.20
2022-08-18T11:41:48.015Z,33.30
2022-08-18T11:44:31.784Z,33.40
2022-08-18T11:47:18.345Z,33.50
2022-08-18T11:50:12.936Z,33.50
2022-08-18T11:52:53.901Z,33.60
2022-08-18T11:55:31.850Z,33.60
2022-08-18T11:58:00.447Z,33.70
2022-08-18T12:00:42.983Z,33.90
2022-08-18T12:03:20.240Z,34.00
2022-08-18T12:09:04.197Z,34.30
2022-08-18T12:14:35.524Z,34.50
2022-08-18T12:17:07.861Z,34.70
2022-08-18T12:19:35.411Z,34.70
2022-08-18T12:22:13.465Z,34.80
2022-08-18T12:24:41.509Z,34.90
2022-08-18T12:30:16.638Z,35.20
2022-08-18T12:32:50.698Z,35.30
2022-08-18T12:35:23.593Z,35.40
2022-08-18T12:38:04.995Z,35.40
2022-08-18T12:40:40.610Z,35.50
2022-08-18T12:43:11.043Z,35.60
2022-08-18T12:45:39.064Z,35.70
2022-08-18T12:48:09.940Z,35.70
2022-08-18T12:53:29.905Z,35.90
2022-08-18T12:56:30.310Z,36.00
2022-08-18T12:59:06.972Z,36.10
2022-08-18T13:01:38.220Z,36.20
2022-08-18T13:04:12.967Z,36.30
2022-08-18T13:07:00.061Z,36.30
2022-08-18T13:09:34.573Z,36.40
2022-08-18T13:12:19.693Z,36.50
2022-08-18T13:14:50.998Z,36.60
2022-08-18T13:17:30.508Z,36.60
2022-08-18T13:20:07.604Z,36.60
2022-08-18T13:22:41.991Z,36.60
2022-08-18T13:25:32.025Z,36.70
2022-08-18T13:28:04.619Z,36.70
2022-08-18T13:30:35.490Z,36.80
2022-08-18T13:33:06.059Z,37.00
2022-08-18T13:35:54.498Z,37.10
2022-08-18T13:38:27.123Z,37.10
2022-08-18T13:41:04.031Z,37.20
2022-08-18T13:43:39.258Z,37.20
2022-08-18T13:46:09.301Z,37.30
2022-08-18T13:48:37.940Z,37.30
2022-08-18T13:51:14.311Z,37.30
2022-08-18T13:53:50.909Z,37.30
2022-08-18T13:56:31.224Z,37.30
2022-08-18T13:58:59.246Z,37.30
2022-08-18T14:01:51.525Z,37.40
2022-08-18T14:04:14.933Z,37.50
2022-08-18T14:06:56.174Z,37.50
2022-08-18T14:09:27.777Z,37.50
2022-08-18T14:12:23.252Z,37.50
2022-08-18T14:14:55.714Z,37.40
2022-08-18T14:17:25.845Z,37.50
2022-08-18T14:20:15.154Z,37.50
2022-08-18T14:23:14.209Z,37.40
2022-08-18T14:26:08.665Z,37.40
2022-08-18T14:28:36.022Z,37.20
2022-08-18T14:31:07.079Z,37.10
2022-08-18T14:33:50.783Z,37.00
2022-08-18T14:36:20.297Z,36.90
2022-08-18T14:38:59.210Z,36.80
2022-08-18T14:41:31.461Z,36.80
2022-08-18T14:44:12.263Z,36.70
2022-08-18T14:49:28.687Z,36.30
2022-08-18T14:52:00.300Z,36.10
2022-08-18T14:54:29.998Z,35.80
2022-08-18T14:57:00.917Z,35.60
2022-08-18T14:59:30.827Z,35.40
2022-08-18T15:02:13.429Z,35.30
2022-08-18T15:04:56.439Z,35.20
2022-08-18T15:07:26.160Z,35.10
2022-08-18T15:10:15.622Z,35.00
2022-08-18T15:12:44.737Z,34.90
2022-08-18T15:15:16.770Z,34.80
2022-08-18T15:17:50.475Z,34.80
2022-08-18T15:20:28.763Z,34.80
2022-08-18T15:23:22.637Z,34.80
2022-08-18T15:25:52.168Z,34.90
2022-08-18T15:28:23.760Z,35.00
2022-08-18T15:31:16.525Z,35.20
2022-08-18T15:33:40.308Z,35.20
2022-08-18T15:36:10.323Z,35.10
2022-08-18T15:38:43.519Z,34.90
2022-08-18T15:41:26.870Z,34.80
2022-08-18T15:43:54.417Z,34.60
2022-08-18T15:46:24.342Z,34.40
2022-08-18T15:48:53.549Z,34.20
2022-08-18T15:51:20.721Z,34.10
2022-08-18T15:53:47.974Z,34.00
2022-08-18T15:56:23.030Z,33.90
2022-08-18T15:58:53.411Z,33.80
2022-08-18T16:01:30.169Z,33.80
2022-08-18T16:04:01.245Z,33.70
2022-08-18T16:06:32.436Z,33.50
2022-08-18T16:09:01.547Z,33.50
2022-08-18T16:11:29.935Z,33.50
2022-08-18T16:14:01.733Z,33.30
2022-08-18T16:16:36.221Z,33.30
2022-08-18T16:19:07.051Z,33.30
2022-08-18T16:21:37.896Z,33.20
2022-08-18T16:24:05.810Z,33.10
2022-08-18T16:26:32.879Z,33.10
2022-08-18T16:29:01.765Z,33.00
2022-08-18T16:31:29.820Z,32.90
2022-08-18T16:33:58.362Z,32.80
2022-08-18T16:36:26.461Z,32.70
2022-08-18T16:38:58.167Z,32.60
2022-08-18T16:41:31.964Z,32.50
2022-08-18T16:44:02.239Z,32.40
2022-08-18T16:46:29.562Z,32.30
2022-08-18T16:48:58.959Z,32.10
2022-08-18T16:51:28.573Z,32.10
2022-08-18T16:53:56.052Z,31.90
2022-08-18T16:56:27.718Z,31.80
2022-08-18T16:59:13.940Z,31.80
2022-08-18T17:02:00.580Z,31.70
2022-08-18T17:04:35.120Z,31.70
2022-08-18T17:07:05.772Z,31.70
2022-08-18T17:09:34.775Z,31.60
2022-08-18T17:12:02.540Z,31.50
2022-08-18T17:14:31.936Z,31.50
2022-08-18T17:17:00.595Z,31.40
2022-08-18T17:19:33.201Z,31.20
2022-08-18T17:22:05.287Z,31.10
2022-08-18T17:24:32.948Z,30.90
2022-08-18T17:27:29.942Z,30.80
2022-08-18T17:30:18.746Z,30.60
2022-08-18T17:32:54.852Z,30.50
2022-08-18T17:35:32.827Z,30.30
2022-08-18T17:38:32.630Z,30.20
2022-08-18T17:41:00.999Z,30.10
2022-08-18T17:46:27.556Z,29.90
2022-08-18T17:50:26.283Z,29.70
2022-08-18T17:52:54.224Z,29.60
2022-08-18T17:55:31.285Z,29.40
2022-08-18T17:58:07.152Z,29.30
2022-08-18T18:00:34.390Z,29.20
2022-08-18T18:03:01.615Z,29.10
2022-08-18T18:05:39.048Z,29.00
2022-08-18T18:08:06.583Z,28.90
2022-08-18T18:11:04.473Z,28.80
2022-08-18T18:13:32.845Z,28.70
2022-08-18T18:16:20.941Z,28.60
2022-08-18T18:18:59.973Z,28.50
2022-08-18T18:21:57.644Z,28.40
2022-08-18T18:24:20.658Z,28.30
2022-08-18T18:26:52.083Z,28.20
2022-08-18T18:29:37.692Z,28.10
2022-08-18T18:32:17.319Z,28.00
2022-08-18T18:35:00.752Z,27.90
2022-08-18T18:37:33.166Z,27.80
2022-08-18T18:40:08.196Z,27.70
2022-08-18T18:42:36.640Z,27.60
2022-08-18T18:45:09.559Z,27.50
2022-08-18T18:48:48.239Z,27.40
2022-08-18T18:51:11.951Z,27.30
2022-08-18T18:54:17.165Z,27.30
2022-08-18T18:56:54.603Z,27.10
2022-08-18T18:59:40.640Z,27.00
2022-08-18T19:02:33.848Z,27.00
2022-08-18T19:05:23.566Z,26.90
2022-08-18T19:08:16.045Z,26.80
2022-08-18T19:11:00.432Z,26.70
2022-08-18T19:13:57.943Z,26.60
2022-08-18T19:16:35.548Z,26.50
2022-08-18T19:19:35.696Z,26.40
2022-08-18T19:22:49.867Z,26.30
2022-08-18T19:25:34.635Z,26.20
2022-08-18T19:29:13.025Z,26.10
2022-08-18T19:32:13.461Z,26.00
2022-08-18T19:34:52.499Z,25.90
2022-08-18T19:37:31.445Z,25.80
2022-08-18T19:40:27.398Z,25.70
2022-08-18T19:42:58.409Z,25.70
2022-08-18T19:45:53.516Z,25.60
2022-08-18T19:48:40.674Z,25.50
2022-08-18T19:51:29.862Z,25.40
2022-08-18T19:54:24.194Z,25.40
2022-08-18T19:57:41.980Z,25.30
2022-08-18T20:00:57.540Z,25.20
2022-08-18T20:03:29.693Z,25.10
2022-08-18T20:06:52.883Z,25.00
2022-08-18T20:09:35.675Z,25.00
2022-08-18T20:12:27.936Z,24.90
2022-08-18T20:15:21.703Z,24.90
2022-08-18T20:17:57.301Z,24.80
2022-08-18T20:20:32.797Z,24.70
2022-08-18T20:23:01.335Z,24.70
2022-08-18T20:25:41.902Z,24.70
2022-08-18T20:28:12.773Z,24.60
2022-08-18T20:31:04.924Z,24.60
2022-08-18T20:33:43.274Z,24.60
2022-08-18T20:36:32.445Z,24.50
2022-08-18T20:39:20.923Z,24.50
2022-08-18T20:41:50.537Z,24.40
2022-08-18T20:44:50.813Z,24.30
2022-08-18T20:47:46.576Z,24.30
2022-08-18T20:50:45.023Z,24.20
2022-08-18T20:53:39.940Z,24.20
2022-08-18T20:56:46.512Z,24.10
2022-08-18T20:59:56.223Z,24.10
2022-08-18T21:02:31.588Z,24.10
2022-08-18T21:05:01.099Z,24.00
2022-08-18T21:07:38.366Z,24.00
2022-08-18T21:10:22.709Z,24.00
2022-08-18T21:12:57.922Z,23.90
2022-08-18T21:15:38.182Z,23.90
2022-08-18T21:18:17.490Z,23.80
2022-08-18T21:20:54.241Z,23.80
2022-08-18T21:23:33.841Z,23.80
2022-08-18T21:26:14.499Z,23.70
2022-08-18T21:28:47.975Z,23.70
2022-08-18T21:31:44.046Z,23.70
2022-08-18T21:34:33.677Z,23.70
2022-08-18T21:37:10.574Z,23.70
2022-08-18T21:39:58.228Z,23.70
2022-08-18T21:42:44.932Z,23.70
2022-08-18T21:45:22.501Z,23.60
2022-08-18T21:47:58.158Z,23.60
2022-08-18T21:50:34.397Z,23.60
2022-08-18T21:53:18.028Z,23.50
2022-08-18T21:55:51.285Z,23.50
2022-08-18T21:58:36.416Z,23.40
2022-08-18T22:01:26.110Z,23.40
2022-08-18T22:03:59.587Z,23.40
2022-08-18T22:06:32.839Z,23.40
2022-08-18T22:09:30.509Z,23.30
2022-08-18T22:12:33.999Z,23.30
2022-08-18T22:15:23.061Z,23.30
2022-08-18T22:18:05.954Z,23.30
2022-08-18T22:20:54.116Z,23.20
2022-08-18T22:24:05.268Z,23.20
2022-08-18T22:26:38.250Z,23.20
2022-08-18T22:29:34.737Z,23.10
2022-08-18T22:32:03.508Z,23.10
2022-08-18T22:34:34.479Z,23.10
2022-08-18T22:37:14.451Z,23.10
2022-08-18T22:39:51.402Z,23.10
2022-08-18T22:42:29.394Z,23.20
2022-08-18T22:45:00.256Z,23.20
2022-08-18T22:47:31.498Z,23.30
2022-08-18T22:50:13.970Z,23.30
2022-08-18T22:52:46.610Z,23.30
2022-08-18T22:55:22.008Z,23.30
2022-08-18T22:57:57.105Z,23.30
2022-08-18T23:00:25.489Z,23.30
2022-08-18T23:02:54.208Z,23.30
2022-08-18T23:05:22.022Z,23.20
2022-08-18T23:07:49.904Z,23.20
2022-08-18T23:10:17.263Z,23.20
2022-08-18T23:12:46.982Z,23.20
2022-08-18T23:15:16.830Z,23.10
2022-08-18T23:17:44.271Z,23.10
2022-08-18T23:20:20.760Z,23.00
2022-08-18T23:22:53.843Z,23.00
2022-08-18T23:25:20.987Z,23.00
2022-08-18T23:27:48.032Z,23.00
2022-08-18T23:30:15.580Z,23.00
2022-08-18T23:32:43.605Z,22.90
2022-08-18T23:35:10.969Z,22.90
2022-08-18T23:37:42.167Z,22.90
2022-08-18T23:40:15.618Z,22.90
2022-08-18T23:42:46.569Z,22.90
2022-08-18T23:45:15.162Z,22.90
2022-08-18T23:47:43.418Z,22.90
2022-08-18T23:50:11.491Z,22.90
2022-08-18T23:52:39.807Z,22.90
2022-08-18T23:55:14.061Z,22.90
2022-08-18T23:57:41.232Z,22.80
